Time;durP1;ratioP1;P1;durP2;ratioP2;P2;SDS_P1;SDS_P2;PMS_P1;PMS_P2;Temp;Humidity;BMP_temperature;BMP_pressure;BME280_temperature;BME280_humidity;BME280_pressure;Samples;Min_cycle;Max_cycle;Signal;HPM_P1;HPM_P2
2021/08/14 00:02:16;;;;;;;9.45;8.55;;;29.90;68.50;;;;;;5026051;28;20317;-67
2021/08/14 00:04:41;;;;;;;9.70;8.75;;;29.90;68.00;;;;;;5014261;28;20136;-68
2021/08/14 00:07:07;;;;;;;12.65;8.60;;;29.90;67.20;;;;;;5013700;28;20044;-67
2021/08/14 00:09:36;;;;;;;9.68;8.00;;;30.00;66.90;;;;;;5003641;28;20057;-69
2021/08/14 00:12:03;;;;;;;11.60;7.47;;;29.90;66.30;;;;;;5024671;28;20045;-67
2021/08/14 00:14:29;;;;;;;11.20;7.82;;;29.90;66.80;;;;;;5024816;28;20096;-68
2021/08/14 00:16:55;;;;;;;7.95;7.20;;;29.90;66.30;;;;;;5012280;28;20127;-68
2021/08/14 00:19:20;;;;;;;9.10;7.75;;;29.80;66.30;;;;;;5025380;28;20055;-68
2021/08/14 00:21:46;;;;;;;11.20;7.07;;;29.80;65.70;;;;;;5029258;28;20036;-68
2021/08/14 00:24:11;;;;;;;8.55;7.50;;;29.80;65.40;;;;;;5026686;28;20041;-68
2021/08/14 00:26:37;;;;;;;8.45;6.80;;;29.80;65.20;;;;;;5028102;28;20052;-69
2021/08/14 00:29:03;;;;;;;7.88;7.15;;;29.70;65.20;;;;;;5023286;28;20139;-67
2021/08/14 00:31:28;;;;;;;10.43;6.97;;;29.60;65.00;;;;;;5028969;28;20086;-68
2021/08/14 00:33:54;;;;;;;6.97;6.20;;;29.50;64.50;;;;;;5022659;28;20068;-69
2021/08/14 00:36:20;;;;;;;7.45;6.70;;;29.50;64.20;;;;;;5028486;28;22961;-68
2021/08/14 00:38:45;;;;;;;8.02;6.40;;;29.60;63.70;;;;;;5023295;28;20614;-68
2021/08/14 00:41:11;;;;;;;8.55;6.53;;;29.50;63.60;;;;;;5005500;28;20048;-68
2021/08/14 00:43:38;;;;;;;8.05;6.40;;;29.50;63.30;;;;;;5018383;28;20037;-68
2021/08/14 00:46:05;;;;;;;9.07;6.13;;;29.40;63.40;;;;;;5019123;28;20048;-68
2021/08/14 00:48:30;;;;;;;7.38;6.60;;;29.40;63.50;;;;;;5026642;28;20060;-69
2021/08/14 00:50:57;;;;;;;6.70;6.00;;;29.40;64.10;;;;;;5023531;28;20069;-69
2021/08/14 00:53:23;;;;;;;8.20;6.47;;;29.30;63.30;;;;;;5012665;28;20073;-68
2021/08/14 00:55:50;;;;;;;6.20;5.43;;;29.40;63.20;;;;;;5023653;28;20439;-68
2021/08/14 00:58:15;;;;;;;7.57;5.90;;;29.40;64.00;;;;;;5024620;28;20128;-68
2021/08/14 01:00:43;;;;;;;7.20;6.25;;;29.40;63.10;;;;;;5021324;28;20124;-68
2021/08/14 01:03:09;;;;;;;6.85;6.18;;;29.40;63.00;;;;;;5027053;28;20026;-69
2021/08/14 01:05:38;;;;;;;9.10;5.70;;;29.30;62.80;;;;;;5017687;28;20545;-68
2021/08/14 01:08:04;;;;;;;7.35;6.03;;;29.30;62.50;;;;;;5010760;28;20507;-68
2021/08/14 01:10:31;;;;;;;6.68;5.80;;;29.20;62.40;;;;;;5002396;28;20523;-69
2021/08/14 01:12:56;;;;;;;6.30;5.55;;;29.20;62.80;;;;;;5027026;28;20026;-69
2021/08/14 01:15:22;;;;;;;6.72;5.57;;;29.20;63.30;;;;;;5022446;28;20037;-69
2021/08/14 01:17:48;;;;;;;7.22;6.00;;;29.20;62.70;;;;;;5025114;28;20052;-69
2021/08/14 01:20:14;;;;;;;6.35;5.75;;;29.20;62.60;;;;;;5009021;28;20466;-69
2021/08/14 01:22:41;;;;;;;7.53;5.80;;;29.10;62.80;;;;;;5023237;28;20034;-69
2021/08/14 01:25:09;;;;;;;6.05;5.38;;;29.10;62.90;;;;;;5023876;28;20035;-68
2021/08/14 01:27:43;;;;;;;6.93;5.00;;;29.10;63.10;;;;;;5023234;28;20041;-68
2021/08/14 01:30:11;;;;;;;6.50;5.60;;;29.10;63.80;;;;;;5015408;28;20044;-68
2021/08/14 01:32:37;;;;;;;6.10;5.53;;;28.90;63.10;;;;;;5017513;28;20037;-68
2021/08/14 01:35:04;;;;;;;6.25;5.65;;;29.00;63.40;;;;;;5007729;28;20491;-68
2021/08/14 01:37:31;;;;;;;7.05;5.45;;;28.90;63.30;;;;;;5022891;28;20033;-68
2021/08/14 01:39:57;;;;;;;10.63;5.70;;;29.00;63.20;;;;;;5018647;28;20126;-69
2021/08/14 01:42:22;;;;;;;8.40;6.38;;;29.00;63.00;;;;;;4988574;28;20040;-69
2021/08/14 01:44:48;;;;;;;9.40;6.30;;;28.90;63.10;;;;;;5009241;28;20034;-69
2021/08/14 01:47:14;;;;;;;8.85;5.85;;;29.00;63.30;;;;;;5006669;28;20045;-68
2021/08/14 01:49:39;;;;;;;8.13;5.40;;;29.00;63.30;;;;;;5007530;28;20040;-69
2021/08/14 01:52:13;;;;;;;6.97;5.70;;;28.90;63.70;;;;;;5021514;28;20088;-68
2021/08/14 01:54:39;;;;;;;7.82;5.45;;;28.90;64.20;;;;;;5022809;28;20046;-68
2021/08/14 01:57:06;;;;;;;7.53;5.63;;;28.80;64.70;;;;;;5021693;28;20590;-69
2021/08/14 01:59:33;;;;;;;9.98;6.07;;;28.80;64.70;;;;;;5013017;28;20088;-67
2021/08/14 02:01:59;;;;;;;9.73;5.85;;;28.80;64.80;;;;;;5008789;28;20041;-69
2021/08/14 02:04:24;;;;;;;8.80;6.05;;;28.90;64.70;;;;;;5009955;28;20041;-69
2021/08/14 02:06:50;;;;;;;10.90;6.07;;;28.80;64.80;;;;;;5027739;28;20048;-69
2021/08/14 02:09:15;;;;;;;7.90;5.68;;;28.70;65.00;;;;;;5026556;28;20040;-68
2021/08/14 02:11:41;;;;;;;9.75;6.50;;;28.60;65.40;;;;;;5029923;28;20072;-68
2021/08/14 02:14:07;;;;;;;7.50;5.97;;;28.70;65.50;;;;;;5026374;28;20050;-68
2021/08/14 02:16:33;;;;;;;7.07;5.85;;;28.70;65.50;;;;;;5012281;28;20522;-68
2021/08/14 02:18:59;;;;;;;6.68;5.50;;;28.70;65.50;;;;;;5025856;28;20041;-68
2021/08/14 02:21:25;;;;;;;12.05;6.72;;;28.60;65.80;;;;;;5017077;28;20034;-69
2021/08/14 02:23:51;;;;;;;6.07;5.47;;;28.50;65.40;;;;;;5018876;28;20075;-69
2021/08/14 02:26:17;;;;;;;7.50;5.55;;;28.60;65.60;;;;;;5018277;28;20030;-68
2021/08/14 02:28:43;;;;;;;7.20;5.90;;;28.70;65.50;;;;;;5014620;28;20049;-69
2021/08/14 02:31:09;;;;;;;7.05;5.78;;;28.60;65.50;;;;;;5005481;28;20039;-69
2021/08/14 02:33:35;;;;;;;9.73;6.28;;;28.50;66.10;;;;;;5022336;28;20049;-69
2021/08/14 02:36:02;;;;;;;7.47;5.22;;;28.60;66.20;;;;;;5031586;28;20091;-68
2021/08/14 02:38:28;;;;;;;7.45;6.25;;;28.60;66.20;;;;;;5005000;28;20070;-68
2021/08/14 02:40:54;;;;;;;8.40;6.00;;;28.60;66.20;;;;;;5005489;28;20081;-68
2021/08/14 02:43:19;;;;;;;8.57;6.13;;;28.50;66.20;;;;;;5011502;28;20037;-68
2021/08/14 02:45:45;;;;;;;9.15;6.32;;;28.50;66.60;;;;;;5007596;28;20492;-68
2021/08/14 02:48:11;;;;;;;7.13;6.35;;;28.40;66.50;;;;;;5025532;28;20056;-69
2021/08/14 02:50:39;;;;;;;6.45;5.82;;;28.40;66.80;;;;;;5014387;28;20160;-68
2021/08/14 02:53:04;;;;;;;7.50;5.72;;;28.40;67.10;;;;;;5013834;28;20045;-68
2021/08/14 02:55:30;;;;;;;6.25;5.63;;;28.40;67.20;;;;;;5015612;28;20407;-69
2021/08/14 02:57:56;;;;;;;7.32;5.88;;;28.30;67.10;;;;;;5029368;28;20037;-68
2021/08/14 03:00:21;;;;;;;8.38;6.20;;;28.40;67.20;;;;;;5024343;28;20507;-68
2021/08/14 03:02:47;;;;;;;7.18;5.55;;;28.30;67.30;;;;;;5023285;28;20111;-68
2021/08/14 03:05:12;;;;;;;6.40;5.82;;;28.30;67.60;;;;;;5017400;28;20030;-68
2021/08/14 03:07:38;;;;;;;7.65;5.95;;;28.30;67.50;;;;;;5013602;28;20041;-69
2021/08/14 03:10:05;;;;;;;6.05;5.45;;;28.40;67.20;;;;;;5016268;28;20045;-68
2021/08/14 03:12:30;;;;;;;6.45;5.40;;;28.40;67.30;;;;;;5014716;28;20029;-68
2021/08/14 03:14:56;;;;;;;6.32;5.50;;;28.40;67.30;;;;;;5007533;28;20057;-69
2021/08/14 03:17:22;;;;;;;6.65;5.93;;;28.40;67.10;;;;;;5008935;28;20522;-68
2021/08/14 03:19:47;;;;;;;8.05;6.20;;;28.30;67.20;;;;;;5015184;28;20450;-67
2021/08/14 03:22:13;;;;;;;7.85;5.85;;;28.30;67.50;;;;;;5024267;28;20088;-67
2021/08/14 03:24:39;;;;;;;6.93;6.22;;;28.30;67.30;;;;;;5027622;28;20395;-69
2021/08/14 03:27:06;;;;;;;9.63;6.72;;;28.40;67.40;;;;;;5024014;28;20037;-68
2021/08/14 03:29:32;;;;;;;6.80;6.07;;;28.30;67.20;;;;;;5027179;28;20042;-65
2021/08/14 03:31:58;;;;;;;7.28;5.72;;;28.30;67.80;;;;;;5025278;28;20095;-69
2021/08/14 03:34:24;;;;;;;9.25;6.13;;;28.20;68.10;;;;;;5011106;28;20053;-69
2021/08/14 03:36:49;;;;;;;9.90;6.25;;;28.20;68.30;;;;;;5020171;28;21624;-69
2021/08/14 03:39:15;;;;;;;9.75;6.07;;;28.20;68.30;;;;;;5018184;28;20551;-66
2021/08/14 03:41:40;;;;;;;8.77;6.63;;;28.20;68.40;;;;;;5007513;28;20037;-68
2021/08/14 03:44:06;;;;;;;6.80;6.00;;;28.10;68.50;;;;;;5027607;28;20111;-67
2021/08/14 03:46:32;;;;;;;7.00;5.30;;;28.00;68.80;;;;;;5023794;28;20376;-66
2021/08/14 03:48:57;;;;;;;7.18;5.63;;;28.10;68.90;;;;;;5027785;28;20133;-67
2021/08/14 03:51:23;;;;;;;6.53;5.90;;;28.10;68.80;;;;;;5022073;28;20056;-68
2021/08/14 03:53:48;;;;;;;6.68;5.97;;;28.10;68.60;;;;;;5025481;28;20049;-67
2021/08/14 03:56:14;;;;;;;6.82;6.05;;;28.00;68.80;;;;;;5027908;28;20034;-67
2021/08/14 03:58:40;;;;;;;6.85;6.25;;;28.00;68.90;;;;;;5023021;28;20041;-67
2021/08/14 04:01:05;;;;;;;9.00;6.05;;;28.10;68.80;;;;;;5011966;28;20438;-67
2021/08/14 04:03:31;;;;;;;8.95;6.10;;;28.00;69.10;;;;;;5024460;28;20047;-61
2021/08/14 04:05:57;;;;;;;9.68;6.20;;;28.00;69.40;;;;;;5029391;28;20037;-67
2021/08/14 04:08:23;;;;;;;8.52;6.10;;;28.00;69.50;;;;;;5004420;28;20038;-68
2021/08/14 04:10:48;;;;;;;6.90;6.13;;;28.00;69.40;;;;;;5005472;28;20030;-67
2021/08/14 04:13:14;;;;;;;7.82;6.35;;;27.90;70.10;;;;;;5005501;28;20053;-67
2021/08/14 04:15:40;;;;;;;7.45;6.40;;;27.90;70.30;;;;;;5008281;28;20095;-67
2021/08/14 04:18:06;;;;;;;6.05;5.50;;;28.00;70.30;;;;;;5016765;28;20076;-67
2021/08/14 04:20:31;;;;;;;7.15;6.00;;;28.00;69.90;;;;;;5027905;28;20037;-63
2021/08/14 04:22:57;;;;;;;9.10;6.22;;;28.00;69.90;;;;;;5012480;28;20034;-68
2021/08/14 04:25:23;;;;;;;10.43;6.35;;;27.90;70.30;;;;;;5027983;28;20502;-68
2021/08/14 04:27:48;;;;;;;7.95;6.32;;;27.90;70.40;;;;;;5009440;28;20061;-68
2021/08/14 04:30:14;;;;;;;8.02;6.68;;;28.00;70.20;;;;;;5023143;28;20041;-69
2021/08/14 04:32:40;;;;;;;9.13;6.35;;;27.90;69.70;;;;;;5030142;28;20040;-68
2021/08/14 04:35:09;;;;;;;11.90;6.63;;;27.90;69.50;;;;;;5023392;28;20045;-67
2021/08/14 04:37:35;;;;;;;9.52;6.35;;;27.90;70.10;;;;;;5029939;28;20041;-67
2021/08/14 04:40:02;;;;;;;8.27;6.28;;;27.90;70.50;;;;;;5020206;28;20044;-67
2021/08/14 04:42:27;;;;;;;8.40;6.10;;;27.90;70.80;;;;;;5006949;28;20034;-67
2021/08/14 04:44:53;;;;;;;6.43;5.78;;;27.90;70.90;;;;;;5003144;28;20057;-67
2021/08/14 04:47:19;;;;;;;7.53;6.35;;;27.80;70.80;;;;;;5020519;28;20590;-68
2021/08/14 04:49:44;;;;;;;7.70;5.65;;;27.80;71.10;;;;;;5022108;28;20038;-68
2021/08/14 04:52:10;;;;;;;6.90;6.20;;;27.80;71.20;;;;;;5028868;28;20369;-68
2021/08/14 04:54:35;;;;;;;7.78;6.38;;;27.70;71.50;;;;;;5018883;28;20053;-67
2021/08/14 04:57:01;;;;;;;7.25;6.13;;;27.60;71.50;;;;;;5021604;28;20042;-68
2021/08/14 04:59:27;;;;;;;6.90;5.95;;;27.60;71.70;;;;;;4988864;28;20099;-68
2021/08/14 05:01:52;;;;;;;7.03;5.88;;;27.70;71.80;;;;;;5023085;28;20044;-68
2021/08/14 05:04:18;;;;;;;6.75;5.93;;;27.70;71.40;;;;;;5022517;28;20049;-68
2021/08/14 05:06:44;;;;;;;5.78;4.97;;;27.70;71.90;;;;;;5023480;28;20029;-68
2021/08/14 05:09:10;;;;;;;6.93;5.97;;;27.70;71.10;;;;;;5012507;28;20041;-67
2021/08/14 05:11:35;;;;;;;8.85;6.13;;;27.70;71.90;;;;;;5014838;28;20113;-68
2021/08/14 05:14:01;;;;;;;7.38;6.00;;;27.60;71.30;;;;;;5026649;28;20050;-68
2021/08/14 05:16:26;;;;;;;9.18;5.63;;;27.50;71.80;;;;;;5013056;28;20090;-67
2021/08/14 05:18:52;;;;;;;6.53;5.70;;;27.60;71.90;;;;;;5026332;28;20443;-67
2021/08/14 05:21:18;;;;;;;7.97;6.13;;;27.60;71.70;;;;;;5022044;28;20476;-67
2021/08/14 05:23:43;;;;;;;6.15;5.53;;;27.70;71.30;;;;;;5026453;28;20053;-67
2021/08/14 05:26:09;;;;;;;6.18;5.57;;;27.70;71.60;;;;;;5016447;28;20100;-67
2021/08/14 05:28:35;;;;;;;8.13;5.72;;;27.70;71.20;;;;;;5015636;28;20061;-66
2021/08/14 05:31:01;;;;;;;7.93;5.80;;;27.70;71.10;;;;;;5004864;28;20042;-68
2021/08/14 05:33:26;;;;;;;8.20;5.78;;;27.70;71.90;;;;;;5000507;28;20042;-67
2021/08/14 05:35:52;;;;;;;6.50;5.97;;;27.70;71.80;;;;;;5005970;28;20423;-67
2021/08/14 05:38:18;;;;;;;7.80;6.25;;;27.70;71.90;;;;;;5023069;28;20483;-67
2021/08/14 05:40:43;;;;;;;8.20;7.00;;;27.60;72.20;;;;;;5021901;28;20463;-67
2021/08/14 05:43:09;;;;;;;8.85;6.07;;;27.70;72.10;;;;;;5031098;28;20029;-66
2021/08/14 05:45:35;;;;;;;8.07;6.15;;;27.60;72.30;;;;;;5030454;28;20041;-67
2021/08/14 05:48:05;;;;;;;8.85;5.97;;;27.70;72.00;;;;;;5028243;28;20140;-67
2021/08/14 05:50:31;;;;;;;8.25;6.05;;;27.80;71.70;;;;;;5026931;28;20049;-67
2021/08/14 05:52:57;;;;;;;10.50;6.53;;;27.90;71.50;;;;;;5003132;28;20045;-67
2021/08/14 05:55:23;;;;;;;8.50;6.38;;;27.90;72.20;;;;;;5023442;28;20048;-67
2021/08/14 05:57:49;;;;;;;8.63;6.40;;;28.00;71.70;;;;;;5025407;28;20033;-67
2021/08/14 06:00:15;;;;;;;9.63;6.47;;;27.90;71.60;;;;;;5025626;28;20049;-67
2021/08/14 06:02:41;;;;;;;7.93;6.47;;;27.90;71.40;;;;;;5013849;28;20086;-67
2021/08/14 06:05:08;;;;;;;7.43;6.60;;;28.00;71.20;;;;;;5030303;28;20041;-68
2021/08/14 06:07:34;;;;;;;7.63;6.53;;;28.00;71.10;;;;;;5026734;28;20113;-66
2021/08/14 06:10:00;;;;;;;6.82;6.15;;;28.10;70.90;;;;;;5021651;28;20133;-67
2021/08/14 06:12:26;;;;;;;7.30;6.55;;;28.00;71.00;;;;;;5025374;28;20072;-67
2021/08/14 06:14:52;;;;;;;7.13;6.53;;;28.00;71.00;;;;;;5030558;28;20077;-67
2021/08/14 06:17:17;;;;;;;7.68;6.22;;;28.10;71.10;;;;;;5033915;28;20037;-68
2021/08/14 06:19:43;;;;;;;7.85;6.85;;;28.10;71.50;;;;;;5030049;28;20128;-67
2021/08/14 06:22:09;;;;;;;9.35;6.28;;;28.10;71.30;;;;;;5022526;28;20373;-67
2021/08/14 06:24:35;;;;;;;6.82;6.03;;;28.10;71.40;;;;;;5026012;28;20041;-67
2021/08/14 06:27:01;;;;;;;8.23;6.57;;;28.10;71.30;;;;;;5024850;28;20505;-68
2021/08/14 06:29:27;;;;;;;11.60;7.05;;;28.10;71.90;;;;;;5006822;28;20112;-67
2021/08/14 06:31:52;;;;;;;7.30;6.50;;;28.10;71.50;;;;;;5012330;28;20066;-67
2021/08/14 06:34:19;;;;;;;8.82;6.70;;;28.20;70.70;;;;;;5016339;28;20042;-67
2021/08/14 06:36:44;;;;;;;8.50;6.95;;;28.30;70.50;;;;;;5025364;28;20121;-67
2021/08/14 06:39:10;;;;;;;9.18;7.00;;;28.20;70.30;;;;;;5019981;28;20046;-67
2021/08/14 06:41:35;;;;;;;6.78;6.15;;;28.30;70.30;;;;;;5029823;28;20475;-67
2021/08/14 06:44:01;;;;;;;8.80;6.80;;;28.30;70.10;;;;;;5024820;28;20080;-67
2021/08/14 06:46:27;;;;;;;9.60;6.75;;;28.30;69.60;;;;;;5024654;28;20163;-68
2021/08/14 06:48:52;;;;;;;8.80;6.25;;;28.40;70.40;;;;;;5024140;28;20128;-67
2021/08/14 06:51:18;;;;;;;7.75;6.95;;;28.50;70.60;;;;;;5011884;28;20037;-67
2021/08/14 06:53:44;;;;;;;7.57;6.80;;;28.50;69.70;;;;;;5007511;28;20054;-67
2021/08/14 06:56:10;;;;;;;7.22;6.35;;;28.60;69.50;;;;;;5026827;28;20048;-67
2021/08/14 06:58:35;;;;;;;8.32;7.53;;;28.60;68.60;;;;;;5015303;28;20038;-67
2021/08/14 07:01:01;;;;;;;7.95;6.63;;;28.60;69.20;;;;;;5009854;28;20062;-67
2021/08/14 07:03:27;;;;;;;9.27;7.13;;;28.70;69.10;;;;;;5013444;28;20108;-67
2021/08/14 07:05:52;;;;;;;7.45;6.65;;;28.70;68.50;;;;;;5006189;28;20472;-67
2021/08/14 07:08:18;;;;;;;10.05;7.07;;;28.70;68.10;;;;;;5017249;28;20083;-67
2021/08/14 07:10:43;;;;;;;12.07;6.93;;;28.70;68.20;;;;;;5003208;28;20507;-67
2021/08/14 07:13:09;;;;;;;8.07;6.15;;;28.80;67.60;;;;;;5013967;28;20033;-67
2021/08/14 07:15:34;;;;;;;8.50;7.05;;;28.90;68.40;;;;;;5009726;28;20046;-67
2021/08/14 07:18:00;;;;;;;7.88;7.05;;;28.90;67.30;;;;;;5011497;28;20038;-67
2021/08/14 07:20:26;;;;;;;9.15;6.50;;;28.80;66.70;;;;;;5004664;28;20396;-67
2021/08/14 07:22:51;;;;;;;10.75;7.15;;;28.90;67.20;;;;;;5020693;28;20049;-67
2021/08/14 07:25:17;;;;;;;8.90;6.70;;;29.00;67.10;;;;;;5015587;28;20033;-67
2021/08/14 07:27:43;;;;;;;8.30;6.78;;;29.00;66.70;;;;;;5026597;28;20072;-67
2021/08/14 07:30:09;;;;;;;7.30;6.68;;;29.10;66.80;;;;;;5016418;28;20046;-67
2021/08/14 07:32:36;;;;;;;11.07;7.47;;;29.20;67.20;;;;;;5024139;28;20033;-67
2021/08/14 07:35:02;;;;;;;9.77;7.03;;;29.20;66.50;;;;;;5015958;28;20052;-68
2021/08/14 07:37:28;;;;;;;12.43;7.70;;;29.20;66.70;;;;;;5003984;28;20065;-67
2021/08/14 07:39:54;;;;;;;12.52;8.13;;;29.30;66.40;;;;;;5028352;28;20399;-67
2021/08/14 07:42:19;;;;;;;10.00;6.72;;;29.40;66.20;;;;;;5024416;28;20037;-67
2021/08/14 07:44:45;;;;;;;8.88;6.95;;;29.40;66.10;;;;;;5026377;28;20108;-67
2021/08/14 07:47:11;;;;;;;9.05;7.78;;;29.40;66.10;;;;;;5024612;28;20045;-67
2021/08/14 07:49:36;;;;;;;10.32;7.78;;;29.50;66.60;;;;;;5028359;28;20073;-67
2021/08/14 07:52:02;;;;;;;8.73;7.93;;;29.50;65.60;;;;;;5024557;28;20071;-67
2021/08/14 07:54:28;;;;;;;9.15;8.18;;;29.50;65.80;;;;;;5021022;28;20063;-67
2021/08/14 07:56:56;;;;;;;8.65;7.05;;;29.60;65.40;;;;;;5021992;28;20053;-67
2021/08/14 07:59:22;;;;;;;8.73;7.47;;;29.70;65.00;;;;;;5026975;28;20120;-67
2021/08/14 08:01:47;;;;;;;11.52;8.35;;;29.70;64.70;;;;;;5025509;28;20164;-67
2021/08/14 08:04:13;;;;;;;9.63;8.32;;;29.80;64.70;;;;;;5032576;28;20095;-67
2021/08/14 08:06:38;;;;;;;13.32;7.55;;;29.80;64.10;;;;;;5019042;28;20034;-67
2021/08/14 08:09:04;;;;;;;11.88;8.27;;;29.80;63.40;;;;;;5007850;28;20480;-66
2021/08/14 08:11:30;;;;;;;8.80;7.60;;;29.80;63.70;;;;;;5013472;28;20044;-68
2021/08/14 08:13:56;;;;;;;11.43;8.50;;;29.90;63.40;;;;;;5024436;28;20053;-67
2021/08/14 08:16:21;;;;;;;9.38;7.93;;;30.00;63.00;;;;;;5027891;28;20555;-67
2021/08/14 08:18:47;;;;;;;11.20;8.15;;;30.00;62.40;;;;;;5021939;28;20037;-67
2021/08/14 08:21:13;;;;;;;10.85;8.00;;;30.10;62.40;;;;;;5028283;28;20045;-67
2021/08/14 08:23:39;;;;;;;9.00;7.80;;;30.10;62.20;;;;;;5011406;28;20102;-67
2021/08/14 08:26:04;;;;;;;11.40;8.40;;;30.20;61.80;;;;;;5022693;28;20062;-66
2021/08/14 08:28:30;;;;;;;13.35;8.30;;;30.20;61.50;;;;;;5022652;28;20072;-67
2021/08/14 08:30:56;;;;;;;11.07;7.93;;;30.20;60.60;;;;;;5026356;28;20563;-67
2021/08/14 08:33:22;;;;;;;8.38;7.60;;;30.30;60.50;;;;;;5020829;28;20045;-67
2021/08/14 08:35:47;;;;;;;10.52;7.70;;;30.30;60.20;;;;;;5028353;28;20066;-67
2021/08/14 08:38:13;;;;;;;10.68;8.32;;;30.30;59.90;;;;;;4991776;28;20075;-67
2021/08/14 08:40:40;;;;;;;13.00;7.90;;;30.40;59.90;;;;;;5009923;28;20442;-67
2021/08/14 08:43:06;;;;;;;12.98;8.88;;;30.50;59.60;;;;;;5023303;28;20060;-67
2021/08/14 08:45:33;;;;;;;10.70;7.57;;;30.50;59.50;;;;;;5026077;28;20472;-67
2021/08/14 08:47:59;;;;;;;8.65;7.88;;;30.50;59.40;;;;;;5006857;28;20042;-68
2021/08/14 08:50:28;;;;;;;11.48;8.13;;;30.60;58.70;;;;;;5008978;28;20494;-67
2021/08/14 08:52:54;;;;;;;10.05;8.95;;;30.70;58.70;;;;;;5008700;28;20131;-67
2021/08/14 08:55:22;;;;;;;10.05;8.27;;;30.80;58.10;;;;;;5001172;28;20054;-67
2021/08/14 08:57:48;;;;;;;12.85;9.40;;;30.80;58.40;;;;;;5007310;28;20112;-67
2021/08/14 09:00:16;;;;;;;9.75;8.57;;;30.80;58.10;;;;;;5016576;28;20033;-67
2021/08/14 09:02:43;;;;;;;10.73;8.60;;;30.80;58.00;;;;;;5027985;28;20069;-67
2021/08/14 09:05:21;;;;;;;9.23;8.43;;;30.90;57.80;;;;;;5026688;28;20124;-67
2021/08/14 09:07:48;;;;;;;11.70;8.75;;;30.90;57.60;;;;;;5028579;28;20068;-67
2021/08/14 09:10:14;;;;;;;13.90;9.00;;;30.90;57.90;;;;;;5006700;28;20033;-67
2021/08/14 09:12:41;;;;;;;12.10;9.82;;;31.00;58.30;;;;;;5022860;28;20061;-68
2021/08/14 09:15:21;;;;;;;11.77;8.23;;;31.00;57.70;;;;;;5003165;28;20100;-67
2021/08/14 09:17:47;;;;;;;9.07;8.18;;;31.00;57.80;;;;;;5018451;28;20041;-68
2021/08/14 09:20:16;;;;;;;12.65;9.27;;;31.10;57.90;;;;;;5004811;28;20064;-68
2021/08/14 09:22:59;;;;;;;12.27;9.57;;;31.20;57.50;;;;;;5027590;28;20110;-69
2021/08/14 09:25:24;;;;;;;9.50;8.57;;;31.20;57.20;;;;;;5021457;28;20049;-69
2021/08/14 09:27:57;;;;;;;9.95;8.98;;;31.30;57.40;;;;;;5024437;28;20454;-68
2021/08/14 09:30:46;;;;;;;9.82;8.65;;;31.30;57.60;;;;;;5004971;28;20138;-69
2021/08/14 09:33:15;;;;;;;12.68;9.35;;;31.30;57.30;;;;;;4984153;28;20041;-69
2021/08/14 09:35:42;;;;;;;9.80;8.85;;;31.50;56.70;;;;;;5006374;28;20121;-68
2021/08/14 09:38:10;;;;;;;11.20;9.38;;;31.50;56.40;;;;;;5014803;28;20172;-68
2021/08/14 09:40:41;;;;;;;9.70;8.75;;;31.60;56.00;;;;;;5002370;28;20026;-68
2021/08/14 09:43:07;;;;;;;10.95;9.85;;;31.70;55.90;;;;;;5004821;28;20079;-68
2021/08/14 09:45:34;;;;;;;10.40;9.05;;;31.80;55.50;;;;;;5002431;28;20436;-69
2021/08/14 09:48:17;;;;;;;9.90;8.95;;;31.80;55.50;;;;;;5011692;28;20041;-68
2021/08/14 09:50:43;;;;;;;12.65;9.20;;;32.00;55.30;;;;;;4982445;28;20084;-68
2021/08/14 09:53:14;;;;;;;9.90;8.90;;;31.90;55.60;;;;;;5009048;28;20034;-68
2021/08/14 09:55:40;;;;;;;11.00;9.05;;;32.00;54.50;;;;;;5021158;28;20050;-68
2021/08/14 09:58:09;;;;;;;12.07;9.93;;;32.20;54.80;;;;;;5027698;28;20041;-67
2021/08/14 10:00:34;;;;;;;12.18;10.35;;;32.20;54.00;;;;;;5025982;28;20033;-68
2021/08/14 10:03:01;;;;;;;13.02;9.55;;;32.30;53.10;;;;;;5023519;28;20037;-69
2021/08/14 10:05:27;;;;;;;10.85;9.77;;;32.30;53.00;;;;;;5018228;28;20037;-68
2021/08/14 10:07:53;;;;;;;9.95;8.77;;;32.30;52.90;;;;;;5022270;28;20041;-68
2021/08/14 10:10:19;;;;;;;10.00;9.00;;;32.40;52.70;;;;;;5025765;28;20038;-68
2021/08/14 10:12:45;;;;;;;10.18;9.23;;;32.20;53.00;;;;;;5021247;28;20529;-69
2021/08/14 10:15:11;;;;;;;10.10;9.07;;;32.40;52.50;;;;;;5007638;28;20045;-69
2021/08/14 10:17:38;;;;;;;11.82;9.13;;;32.60;52.10;;;;;;5009758;28;20064;-68
2021/08/14 10:20:05;;;;;;;9.90;8.48;;;32.70;51.90;;;;;;5018325;28;20033;-68
2021/08/14 10:22:31;;;;;;;9.98;8.95;;;32.70;51.40;;;;;;5007072;28;20124;-68
2021/08/14 10:24:57;;;;;;;9.63;8.57;;;32.80;51.50;;;;;;5024880;28;20125;-69
2021/08/14 10:27:23;;;;;;;9.88;8.93;;;32.90;51.50;;;;;;5016092;28;20037;-69
2021/08/14 10:29:58;;;;;;;10.13;8.60;;;33.00;50.60;;;;;;5026850;28;20033;-69
2021/08/14 10:32:30;;;;;;;11.93;8.52;;;33.00;49.70;;;;;;5025098;28;20103;-69
2021/08/14 10:35:17;;;;;;;9.93;8.98;;;33.00;49.60;;;;;;5028233;28;20053;-68
2021/08/14 10:37:47;;;;;;;11.68;9.10;;;33.20;48.80;;;;;;4996221;28;20487;-69
2021/08/14 10:40:15;;;;;;;13.27;9.38;;;33.00;49.20;;;;;;5027631;28;20063;-69
2021/08/14 10:42:47;;;;;;;9.93;8.95;;;33.20;48.90;;;;;;5024482;28;20049;-69
2021/08/14 10:45:17;;;;;;;13.85;8.88;;;33.10;48.30;;;;;;5030167;28;20029;-69
2021/08/14 10:47:45;;;;;;;9.02;8.27;;;33.10;48.80;;;;;;5023852;28;20041;-68
2021/08/14 10:50:33;;;;;;;10.02;8.18;;;33.20;48.20;;;;;;5028404;28;20045;-68
2021/08/14 10:53:11;;;;;;;11.00;8.90;;;33.20;47.60;;;;;;5005539;28;20038;-69
2021/08/14 10:55:38;;;;;;;9.13;8.18;;;33.30;48.40;;;;;;5006269;28;20042;-69
2021/08/14 10:58:22;;;;;;;11.55;9.50;;;33.50;48.40;;;;;;5006973;28;20074;-69
2021/08/14 11:00:49;;;;;;;10.68;9.10;;;33.50;47.90;;;;;;4985266;28;20483;-68
2021/08/14 11:03:19;;;;;;;10.25;9.38;;;33.60;48.10;;;;;;5001111;28;20130;-69
2021/08/14 11:05:46;;;;;;;10.13;9.13;;;33.90;48.50;;;;;;5028212;28;20674;-69
2021/08/14 11:08:22;;;;;;;11.05;9.82;;;34.00;48.30;;;;;;5029133;28;20487;-68
2021/08/14 11:10:48;;;;;;;10.45;9.40;;;34.10;48.70;;;;;;5026824;28;20037;-69
2021/08/14 11:13:37;;;;;;;10.60;9.52;;;34.40;48.10;;;;;;5031490;28;20033;-69
2021/08/14 11:16:03;;;;;;;18.83;10.27;;;34.60;46.60;;;;;;5022498;28;20377;-69
2021/08/14 11:18:50;;;;;;;10.45;9.38;;;34.40;47.30;;;;;;5022159;28;20103;-69
2021/08/14 11:21:16;;;;;;;12.90;9.82;;;34.70;46.40;;;;;;4992996;28;20087;-69
2021/08/14 11:24:37;;;;;;;10.10;9.30;;;34.80;47.10;;;;;;5014144;28;20128;-69
2021/08/14 11:27:34;;;;;;;11.32;10.23;;;34.80;46.10;;;;;;4992581;28;20091;-69
2021/08/14 11:30:09;;;;;;;11.18;10.18;;;35.10;45.70;;;;;;4994300;28;20120;-69
2021/08/14 11:32:36;;;;;;;10.63;9.43;;;35.20;45.20;;;;;;5020081;28;20037;-69
2021/08/14 11:35:05;;;;;;;10.13;9.18;;;36.30;43.70;;;;;;5026508;28;20072;-70
2021/08/14 11:37:30;;;;;;;10.43;9.43;;;36.90;42.20;;;;;;5016618;28;20074;-70
2021/08/14 11:40:04;;;;;;;11.32;10.23;;;37.20;41.10;;;;;;5010342;28;20037;-70
2021/08/14 11:42:31;;;;;;;11.23;9.55;;;37.60;39.30;;;;;;5026076;28;20030;-70
2021/08/14 11:44:58;;;;;;;10.13;9.18;;;37.60;39.10;;;;;;5020890;28;20057;-70
2021/08/14 11:47:33;;;;;;;10.57;9.55;;;38.20;37.50;;;;;;5021366;28;20045;-69
2021/08/14 11:50:03;;;;;;;11.45;10.18;;;38.40;36.30;;;;;;5021734;28;20084;-70
2021/08/14 11:52:29;;;;;;;10.20;9.30;;;38.70;35.70;;;;;;5023900;28;20483;-69
2021/08/14 11:54:56;;;;;;;10.57;9.68;;;39.40;34.10;;;;;;4996341;28;20124;-69
2021/08/14 11:57:27;;;;;;;10.73;9.57;;;40.60;32.70;;;;;;5022718;28;20034;-70
2021/08/14 11:59:52;;;;;;;10.50;9.45;;;40.60;32.00;;;;;;5018944;28;20411;-69
2021/08/14 12:02:18;;;;;;;10.25;9.45;;;41.00;32.20;;;;;;5022127;28;20065;-70
2021/08/14 12:04:44;;;;;;;10.00;9.20;;;41.00;31.60;;;;;;5023727;28;20522;-70
2021/08/14 12:07:13;;;;;;;9.70;8.80;;;41.20;31.40;;;;;;5003931;28;20042;-70
2021/08/14 12:09:39;;;;;;;13.27;9.95;;;41.50;31.00;;;;;;5018091;28;20057;-69
2021/08/14 12:12:05;;;;;;;10.07;9.13;;;41.20;30.10;;;;;;5003206;28;20069;-68
2021/08/14 12:14:30;;;;;;;9.25;8.55;;;42.80;28.70;;;;;;5009224;28;20048;-68
2021/08/14 12:17:00;;;;;;;10.52;9.57;;;43.70;27.00;;;;;;5005152;28;20502;-68
2021/08/14 12:19:27;;;;;;;9.68;8.70;;;45.50;25.30;;;;;;5015192;28;20095;-69
2021/08/14 12:22:11;;;;;;;10.40;9.48;;;47.10;28.40;;;;;;5018289;28;20139;-68
2021/08/14 12:24:36;;;;;;;9.77;9.07;;;47.50;32.20;;;;;;5024271;28;20037;-67
2021/08/14 12:27:02;;;;;;;10.40;9.55;;;46.60;30.00;;;;;;5018799;28;20087;-69
2021/08/14 12:29:28;;;;;;;10.32;9.52;;;45.50;30.20;;;;;;5029657;28;20037;-69
2021/08/14 12:31:55;;;;;;;9.98;9.02;;;45.60;30.30;;;;;;5023185;28;20057;-69
2021/08/14 12:34:27;;;;;;;9.88;9.02;;;44.80;29.70;;;;;;5027575;28;20053;-70
2021/08/14 12:37:10;;;;;;;10.93;10.18;;;44.80;28.40;;;;;;5020236;28;20673;-70
2021/08/14 12:39:45;;;;;;;10.47;9.77;;;45.00;27.40;;;;;;5021626;28;20120;-69
2021/08/14 12:42:31;;;;;;;11.05;10.02;;;44.20;27.40;;;;;;5019116;28;20044;-70
2021/08/14 12:44:58;;;;;;;11.40;10.30;;;43.90;29.20;;;;;;5003154;28;20121;-70